Time;durP1;ratioP1;P1;durP2;ratioP2;P2;SDS_P1;SDS_P2;PMS_P1;PMS_P2;Temp;Humidity;BMP_temperature;BMP_pressure;BME280_temperature;BME280_humidity;BME280_pressure;Samples;Min_cycle;Max_cycle;Signal;HPM_P1;HPM_P2
2023/07/27 00:00:53;;;;;;;;;;;18.30;65.80;;;;;;5114026;28;19950;-39
2023/07/27 00:03:19;;;;;;;;;;;18.30;65.80;;;;;;5113900;28;19919;-39
2023/07/27 00:05:44;;;;;;;;;;;18.30;65.90;;;;;;5114128;28;20344;-39
2023/07/27 00:08:10;;;;;;;;;;;18.30;65.80;;;;;;5113907;28;19915;-40
2023/07/27 00:10:35;;;;;;;;;;;18.20;65.80;;;;;;5095728;28;19946;-39
2023/07/27 00:13:01;;;;;;;;;;;18.20;65.80;;;;;;5113842;28;19916;-40
2023/07/27 00:15:26;;;;;;;;;;;18.20;65.80;;;;;;5113681;28;19911;-45
2023/07/27 00:17:52;;;;;;;;;;;18.20;65.90;;;;;;5113784;28;19918;-48
2023/07/27 00:20:18;;;;;;;;;;;18.20;65.90;;;;;;5113871;28;19934;-39
2023/07/27 00:22:43;;;;;;;;;;;18.20;66.00;;;;;;5113845;28;19926;-40
2023/07/27 00:25:08;;;;;;;;;;;18.20;66.00;;;;;;5113724;28;19912;-38
2023/07/27 00:27:34;;;;;;;;;;;18.20;66.00;;;;;;5113674;28;20011;-40
2023/07/27 00:29:59;;;;;;;;;;;18.20;66.00;;;;;;5113526;28;19912;-38
2023/07/27 00:32:25;;;;;;;;;;;18.20;66.00;;;;;;5113602;28;19919;-41
2023/07/27 00:34:51;;;;;;;;;;;18.20;66.10;;;;;;5113587;28;20438;-39
2023/07/27 00:37:17;;;;;;;;;;;18.20;66.00;;;;;;5113523;28;19980;-38
2023/07/27 00:39:42;;;;;;;;;;;18.20;66.00;;;;;;5113494;28;19916;-39
2023/07/27 00:42:08;;;;;;;;;;;18.30;66.10;;;;;;5113580;28;19964;-39
2023/07/27 00:44:33;;;;;;;;;;;18.30;66.00;;;;;;5113516;28;19911;-40
2023/07/27 00:46:59;;;;;;;;;;;18.30;66.00;;;;;;5113443;28;19920;-37
2023/07/27 00:49:24;;;;;;;;;;;18.30;65.90;;;;;;5112708;28;19920;-39
2023/07/27 00:51:50;;;;;;;;;;;18.30;65.90;;;;;;5113343;28;19911;-37
2023/07/27 00:54:16;;;;;;;;;;;18.30;65.80;;;;;;5113352;28;19935;-40
2023/07/27 00:56:42;;;;;;;;;;;18.40;65.80;;;;;;5113433;28;19988;-39
2023/07/27 00:59:07;;;;;;;;;;;18.40;65.80;;;;;;5113357;28;19911;-39
2023/07/27 01:01:33;;;;;;;;;;;18.40;65.90;;;;;;5113321;28;20359;-40
2023/07/27 01:03:59;;;;;;;;;;;18.30;66.00;;;;;;5113312;28;20036;-39
2023/07/27 01:06:24;;;;;;;;;;;18.20;66.40;;;;;;5113203;28;19918;-40
2023/07/27 01:08:50;;;;;;;;;;;18.20;66.70;;;;;;5113188;28;20389;-41
2023/07/27 01:11:16;;;;;;;;;;;18.10;66.90;;;;;;5113031;28;19916;-37
2023/07/27 01:13:55;;;;;;;;;;;18.00;67.30;;;;;;5113106;28;20438;-39
2023/07/27 01:16:40;;;;;;;;;;;18.00;67.60;;;;;;5112982;28;19919;-36
2023/07/27 01:19:21;;;;;;;;;;;17.90;67.80;;;;;;5112517;28;19951;-38
2023/07/27 01:21:49;;;;;;;;;;;17.80;68.00;;;;;;5113285;28;20006;-40
2023/07/27 01:24:14;;;;;;;;;;;17.80;68.20;;;;;;5113106;28;19947;-41
2023/07/27 01:26:40;;;;;;;;;;;17.80;68.20;;;;;;5112934;28;19973;-40
2023/07/27 01:29:12;;;;;;;;;;;17.80;68.40;;;;;;5113147;28;19919;-39
2023/07/27 01:31:42;;;;;;;;;;;17.70;68.50;;;;;;5112955;28;20096;-40
2023/07/27 01:34:18;;;;;;;;;;;17.70;68.60;;;;;;5112934;28;19912;-39
2023/07/27 01:36:45;;;;;;;;;;;17.70;69.00;;;;;;5094784;28;19912;-39
2023/07/27 01:39:13;;;;;;;;;;;17.60;69.20;;;;;;5112673;28;19916;-38
2023/07/27 01:41:41;;;;;;;;;;;17.60;69.30;;;;;;5112647;28;19935;-37
2023/07/27 01:44:07;;;;;;;;;;;17.60;69.60;;;;;;5112617;28;19995;-40
2023/07/27 01:46:34;;;;;;;;;;;17.60;69.60;;;;;;5112411;28;19912;-39
2023/07/27 01:49:01;;;;;;;;;;;17.60;69.70;;;;;;5112589;28;20359;-40
2023/07/27 01:51:27;;;;;;;;;;;17.60;69.90;;;;;;5112544;28;19919;-40
2023/07/27 01:53:53;;;;;;;;;;;17.50;70.00;;;;;;5112792;28;19916;-41
2023/07/27 01:56:19;;;;;;;;;;;17.50;70.20;;;;;;5112458;28;19955;-39
2023/07/27 01:58:45;;;;;;;;;;;17.50;70.30;;;;;;5112533;28;20394;-40
2023/07/27 02:01:10;;;;;;;;;;;17.50;70.50;;;;;;5115440;28;19922;-37
2023/07/27 02:03:36;;;;;;;;;;;17.50;70.70;;;;;;5116128;28;19999;-41
2023/07/27 02:06:02;;;;;;;;;;;17.40;70.80;;;;;;5116128;28;19911;-36
2023/07/27 02:08:27;;;;;;;;;;;17.40;70.90;;;;;;5115914;28;19969;-40
2023/07/27 02:10:58;;;;;;;;;;;17.40;71.10;;;;;;5115940;28;19994;-40
2023/07/27 02:13:51;;;;;;;;;;;17.40;71.20;;;;;;5115893;28;19919;-41
2023/07/27 02:16:37;;;;;;;;;;;17.40;71.40;;;;;;5077627;28;19912;-37
2023/07/27 02:19:03;;;;;;;;;;;17.40;71.50;;;;;;5115093;28;19911;-40
2023/07/27 02:21:30;;;;;;;;;;;17.30;71.70;;;;;;5115509;28;20029;-40
2023/07/27 02:23:56;;;;;;;;;;;17.30;71.80;;;;;;5115697;28;19964;-41
2023/07/27 02:26:21;;;;;;;;;;;17.30;71.90;;;;;;5115442;28;19916;-38
2023/07/27 02:28:46;;;;;;;;;;;17.30;72.10;;;;;;5097263;28;19996;-40
2023/07/27 02:31:12;;;;;;;;;;;17.20;72.30;;;;;;5115750;28;20394;-38
2023/07/27 02:33:38;;;;;;;;;;;17.20;72.40;;;;;;5115642;28;19968;-39
2023/07/27 02:36:03;;;;;;;;;;;17.20;72.50;;;;;;5115486;28;20002;-39
2023/07/27 02:38:29;;;;;;;;;;;17.20;72.80;;;;;;5115593;28;19911;-39
2023/07/27 02:40:54;;;;;;;;;;;17.10;72.80;;;;;;5115279;28;19973;-39
2023/07/27 02:43:20;;;;;;;;;;;17.10;73.00;;;;;;5115361;28;19908;-44
2023/07/27 02:45:45;;;;;;;;;;;17.10;73.10;;;;;;5115333;28;19908;-38
2023/07/27 02:48:11;;;;;;;;;;;17.10;73.30;;;;;;5115393;28;20336;-37
2023/07/27 02:50:36;;;;;;;;;;;17.10;73.40;;;;;;5115182;28;19919;-37
2023/07/27 02:53:02;;;;;;;;;;;17.10;73.60;;;;;;5115311;28;20270;-36
2023/07/27 02:55:27;;;;;;;;;;;17.00;73.70;;;;;;5115176;28;20321;-36
2023/07/27 02:57:53;;;;;;;;;;;17.00;73.80;;;;;;5115275;28;19908;-37
2023/07/27 03:00:18;;;;;;;;;;;17.00;74.00;;;;;;5115208;28;19907;-38
2023/07/27 03:02:44;;;;;;;;;;;16.90;74.10;;;;;;5115308;28;19908;-36
2023/07/27 03:05:09;;;;;;;;;;;16.90;74.20;;;;;;5115191;28;19908;-37
2023/07/27 03:07:35;;;;;;;;;;;16.90;74.40;;;;;;5114970;28;19969;-40
2023/07/27 03:10:00;;;;;;;;;;;16.80;75.10;;;;;;5096666;28;19918;-36
2023/07/27 03:12:26;;;;;;;;;;;16.80;74.70;;;;;;5114503;28;19961;-37
2023/07/27 03:14:51;;;;;;;;;;;16.80;74.80;;;;;;5114809;28;19908;-36
2023/07/27 03:17:17;;;;;;;;;;;16.80;74.90;;;;;;5114796;28;19912;-38
2023/07/27 03:19:42;;;;;;;;;;;16.80;75.10;;;;;;5114698;28;20298;-36
2023/07/27 03:22:08;;;;;;;;;;;16.70;75.30;;;;;;5114807;28;19915;-36
2023/07/27 03:24:33;;;;;;;;;;;16.70;75.40;;;;;;5114894;28;19929;-36
2023/07/27 03:26:59;;;;;;;;;;;16.70;75.60;;;;;;5114739;28;19911;-35
2023/07/27 03:29:24;;;;;;;;;;;16.70;75.70;;;;;;5096379;28;19908;-36
2023/07/27 03:31:50;;;;;;;;;;;16.60;75.80;;;;;;5114657;28;19908;-35
2023/07/27 03:34:15;;;;;;;;;;;16.60;75.90;;;;;;5114534;28;19908;-36
2023/07/27 03:36:41;;;;;;;;;;;16.60;76.00;;;;;;5114491;28;19912;-37
2023/07/27 03:39:07;;;;;;;;;;;16.50;76.10;;;;;;5114505;28;20287;-37
2023/07/27 03:41:33;;;;;;;;;;;16.50;76.30;;;;;;5114225;28;19907;-38
2023/07/27 03:43:58;;;;;;;;;;;16.50;76.40;;;;;;5114350;28;19943;-37
2023/07/27 03:46:24;;;;;;;;;;;16.50;76.60;;;;;;5114021;28;19931;-37
2023/07/27 03:48:50;;;;;;;;;;;16.50;76.60;;;;;;5114106;28;19993;-37
2023/07/27 03:51:15;;;;;;;;;;;16.50;76.70;;;;;;5114268;28;19912;-36
2023/07/27 03:53:41;;;;;;;;;;;16.50;76.80;;;;;;5114225;28;20404;-35
2023/07/27 03:56:07;;;;;;;;;;;16.40;76.80;;;;;;5114242;28;19923;-37
2023/07/27 03:58:32;;;;;;;;;;;16.40;76.90;;;;;;5114198;28;19958;-34
2023/07/27 04:00:58;;;;;;;;;;;16.40;76.90;;;;;;5114282;28;20359;-37
2023/07/27 04:03:23;;;;;;;;;;;16.40;77.00;;;;;;5095770;28;19911;-34
2023/07/27 04:05:49;;;;;;;;;;;16.40;77.20;;;;;;5114091;28;19915;-36
2023/07/27 04:08:15;;;;;;;;;;;16.30;77.30;;;;;;5114060;28;19916;-36
2023/07/27 04:10:40;;;;;;;;;;;16.30;77.50;;;;;;5113998;28;19939;-36
2023/07/27 04:13:06;;;;;;;;;;;16.20;77.70;;;;;;5113918;28;19966;-35
2023/07/27 04:15:33;;;;;;;;;;;16.20;77.60;;;;;;5113886;28;20399;-36
2023/07/27 04:17:58;;;;;;;;;;;16.20;77.80;;;;;;5113850;28;19915;-36
2023/07/27 04:20:24;;;;;;;;;;;16.20;77.90;;;;;;5113845;28;20347;-37
2023/07/27 04:22:49;;;;;;;;;;;16.20;78.00;;;;;;5113759;28;19912;-36
2023/07/27 04:25:15;;;;;;;;;;;16.20;78.30;;;;;;5113498;28;20359;-36
2023/07/27 04:27:40;;;;;;;;;;;16.10;78.20;;;;;;5113461;28;20371;-34
2023/07/27 04:30:06;;;;;;;;;;;16.10;78.20;;;;;;5113646;28;19918;-36
2023/07/27 04:32:31;;;;;;;;;;;16.10;78.30;;;;;;5113417;28;20349;-35
2023/07/27 04:34:57;;;;;;;;;;;16.10;78.40;;;;;;5113530;28;20367;-36
2023/07/27 04:37:22;;;;;;;;;;;16.10;78.40;;;;;;5113435;28;19918;-38
2023/07/27 04:39:48;;;;;;;;;;;16.10;78.40;;;;;;5113835;28;20409;-37
2023/07/27 04:42:14;;;;;;;;;;;16.10;78.40;;;;;;5113555;28;19943;-36
2023/07/27 04:44:39;;;;;;;;;;;16.10;78.60;;;;;;5113497;28;19946;-37
2023/07/27 04:47:04;;;;;;;;;;;16.10;78.60;;;;;;5113300;28;19916;-36
2023/07/27 04:49:31;;;;;;;;;;;16.10;78.60;;;;;;5113098;28;20302;-36
2023/07/27 04:51:56;;;;;;;;;;;16.10;78.60;;;;;;5113301;28;19918;-35
2023/07/27 04:54:22;;;;;;;;;;;16.10;78.80;;;;;;5113147;28;20009;-35
2023/07/27 04:56:47;;;;;;;;;;;16.10;78.80;;;;;;5113240;28;19911;-37
2023/07/27 04:59:13;;;;;;;;;;;16.10;78.80;;;;;;5113357;28;19912;-36
2023/07/27 05:01:38;;;;;;;;;;;16.10;78.80;;;;;;5113314;28;19976;-36
2023/07/27 05:04:04;;;;;;;;;;;16.10;78.90;;;;;;5113342;28;20007;-36
2023/07/27 05:06:29;;;;;;;;;;;16.10;78.90;;;;;;5113026;28;20317;-35
2023/07/27 05:08:55;;;;;;;;;;;16.10;79.00;;;;;;5113095;28;19965;-35
2023/07/27 05:11:20;;;;;;;;;;;16.10;79.00;;;;;;5113251;28;19916;-44
2023/07/27 05:13:46;;;;;;;;;;;16.10;79.20;;;;;;5113510;28;19912;-36
2023/07/27 05:16:11;;;;;;;;;;;16.10;79.90;;;;;;5113001;28;19912;-35
2023/07/27 05:18:37;;;;;;;;;;;16.10;79.30;;;;;;5113103;28;19919;-36
2023/07/27 05:21:02;;;;;;;;;;;16.10;79.30;;;;;;5113113;28;19912;-37
2023/07/27 05:23:28;;;;;;;;;;;16.10;79.40;;;;;;5113119;28;19912;-36
2023/07/27 05:25:53;;;;;;;;;;;16.10;79.40;;;;;;5112791;28;20266;-37
2023/07/27 05:28:19;;;;;;;;;;;16.10;80.10;;;;;;5112892;28;19915;-35
2023/07/27 05:30:44;;;;;;;;;;;16.20;79.60;;;;;;5113215;28;19911;-37
2023/07/27 05:33:10;;;;;;;;;;;16.10;79.60;;;;;;5112946;28;19911;-36
2023/07/27 05:35:35;;;;;;;;;;;16.20;79.60;;;;;;5115101;28;19912;-37
2023/07/27 05:38:01;;;;;;;;;;;16.20;79.60;;;;;;5116930;28;19922;-36
2023/07/27 05:40:26;;;;;;;;;;;16.20;79.70;;;;;;5117062;28;19911;-38
2023/07/27 05:42:52;;;;;;;;;;;16.20;79.80;;;;;;5116661;28;19912;-34
2023/07/27 05:45:17;;;;;;;;;;;16.20;79.90;;;;;;5116941;28;20026;-37
2023/07/27 05:47:43;;;;;;;;;;;16.20;79.90;;;;;;5116613;28;20373;-35
2023/07/27 05:50:09;;;;;;;;;;;16.20;80.00;;;;;;5116694;28;19919;-37
2023/07/27 05:52:35;;;;;;;;;;;16.20;80.00;;;;;;5117014;28;19912;-36
2023/07/27 05:55:00;;;;;;;;;;;16.20;80.10;;;;;;5116550;28;19916;-38
2023/07/27 05:57:26;;;;;;;;;;;16.30;80.10;;;;;;5116562;28;19912;-37
2023/07/27 05:59:51;;;;;;;;;;;16.30;80.30;;;;;;5116351;28;19964;-34
2023/07/27 06:02:17;;;;;;;;;;;16.30;80.40;;;;;;5116297;28;19960;-37
2023/07/27 06:04:42;;;;;;;;;;;16.30;80.40;;;;;;5116425;28;20365;-36
2023/07/27 06:07:08;;;;;;;;;;;16.30;80.40;;;;;;5116183;28;19922;-37
2023/07/27 06:09:36;;;;;;;;;;;16.40;80.50;;;;;;5116073;28;19911;-37
2023/07/27 06:12:13;;;;;;;;;;;16.40;80.40;;;;;;5116339;28;19999;-36
2023/07/27 06:14:39;;;;;;;;;;;16.40;80.40;;;;;;5116030;28;19919;-37
2023/07/27 06:17:06;;;;;;;;;;;16.50;80.60;;;;;;5116098;28;19912;-36
2023/07/27 06:19:31;;;;;;;;;;;16.50;80.60;;;;;;5116175;28;20279;-36
2023/07/27 06:21:57;;;;;;;;;;;16.50;80.60;;;;;;5116028;28;19950;-35
2023/07/27 06:24:22;;;;;;;;;;;16.50;80.60;;;;;;5115912;28;20006;-35
2023/07/27 06:26:48;;;;;;;;;;;16.50;80.60;;;;;;5115774;28;20291;-38
2023/07/27 06:29:13;;;;;;;;;;;16.60;80.70;;;;;;5115835;28;19912;-36
2023/07/27 06:31:39;;;;;;;;;;;16.60;80.70;;;;;;5115781;28;20386;-37
2023/07/27 06:34:04;;;;;;;;;;;16.60;80.60;;;;;;5115819;28;19991;-36
2023/07/27 06:36:30;;;;;;;;;;;16.60;80.70;;;;;;5115776;28;19912;-36
2023/07/27 06:38:55;;;;;;;;;;;16.60;80.80;;;;;;5115634;28;19912;-38
2023/07/27 06:41:25;;;;;;;;;;;16.70;80.80;;;;;;5115714;28;19915;-36
2023/07/27 06:43:54;;;;;;;;;;;16.70;80.80;;;;;;5115572;28;20276;-36
2023/07/27 06:46:20;;;;;;;;;;;16.80;80.80;;;;;;5114506;28;19934;-38
2023/07/27 06:48:46;;;;;;;;;;;16.80;80.90;;;;;;5115338;28;20393;-36
2023/07/27 06:51:12;;;;;;;;;;;16.80;80.90;;;;;;5115452;28;19926;-36
2023/07/27 06:53:37;;;;;;;;;;;16.80;80.90;;;;;;5115386;28;19958;-37
2023/07/27 06:56:04;;;;;;;;;;;16.80;80.90;;;;;;5115115;28;19911;-35
2023/07/27 06:58:30;;;;;;;;;;;16.90;80.90;;;;;;5115092;28;19994;-36
2023/07/27 07:00:55;;;;;;;;;;;16.90;80.90;;;;;;5115102;28;19939;-35
2023/07/27 07:03:21;;;;;;;;;;;16.90;80.90;;;;;;5115050;28;20366;-36
2023/07/27 07:05:46;;;;;;;;;;;16.90;81.10;;;;;;5114869;28;20006;-36
2023/07/27 07:08:12;;;;;;;;;;;16.90;81.00;;;;;;5114714;28;19916;-36
2023/07/27 07:10:37;;;;;;;;;;;16.90;81.00;;;;;;5096683;28;19915;-37
2023/07/27 07:13:03;;;;;;;;;;;17.00;81.00;;;;;;5114886;28;19961;-36
2023/07/27 07:15:28;;;;;;;;;;;17.00;81.20;;;;;;5114704;28;19911;-43
2023/07/27 07:17:54;;;;;;;;;;;17.10;81.00;;;;;;5114904;28;20237;-37
2023/07/27 07:20:19;;;;;;;;;;;17.10;81.20;;;;;;5114196;28;19950;-40
2023/07/27 07:22:45;;;;;;;;;;;17.10;81.10;;;;;;5114140;28;20370;-34
2023/07/27 07:25:10;;;;;;;;;;;17.20;81.20;;;;;;5114358;28;19927;-44
2023/07/27 07:27:36;;;;;;;;;;;17.10;81.30;;;;;;5114016;28;19966;-37
2023/07/27 07:30:04;;;;;;;;;;;17.10;81.20;;;;;;5114122;28;19947;-36
2023/07/27 07:32:33;;;;;;;;;;;17.20;81.40;;;;;;5114024;28;19912;-38
2023/07/27 07:34:59;;;;;;;;;;;17.30;81.30;;;;;;5114321;28;19988;-39
2023/07/27 07:37:25;;;;;;;;;;;17.30;81.30;;;;;;5113946;28;19912;-35
2023/07/27 07:39:50;;;;;;;;;;;17.30;81.50;;;;;;5113772;28;19958;-38
2023/07/27 07:42:16;;;;;;;;;;;17.30;82.00;;;;;;5114075;28;19911;-36
2023/07/27 07:44:41;;;;;;;;;;;17.30;81.90;;;;;;5113603;28;19916;-36
2023/07/27 07:47:07;;;;;;;;;;;17.30;82.00;;;;;;5113759;28;19916;-42
2023/07/27 07:49:32;;;;;;;;;;;17.40;82.30;;;;;;5113760;28;19925;-40
2023/07/27 07:51:58;;;;;;;;;;;17.40;82.00;;;;;;5113449;28;20006;-38
2023/07/27 07:54:23;;;;;;;;;;;17.50;82.40;;;;;;5112722;28;19915;-35
2023/07/27 07:56:49;;;;;;;;;;;17.50;82.50;;;;;;5094263;28;19919;-36
2023/07/27 07:59:15;;;;;;;;;;;17.50;82.40;;;;;;5112519;28;19912;-36
2023/07/27 08:01:41;;;;;;;;;;;17.50;82.40;;;;;;5113667;28;20006;-36
2023/07/27 08:04:07;;;;;;;;;;;17.60;82.70;;;;;;5113405;28;19918;-37
2023/07/27 08:06:33;;;;;;;;;;;17.60;82.80;;;;;;5113384;28;19912;-38
2023/07/27 08:08:58;;;;;;;;;;;17.60;82.70;;;;;;5113312;28;20328;-37
2023/07/27 08:11:24;;;;;;;;;;;17.70;82.70;;;;;;5113164;28;19912;-36
2023/07/27 08:13:49;;;;;;;;;;;17.70;82.50;;;;;;5113313;28;19912;-37
2023/07/27 08:16:15;;;;;;;;;;;17.80;82.50;;;;;;5113307;28;20411;-37
2023/07/27 08:18:40;;;;;;;;;;;17.80;82.40;;;;;;5113120;28;20537;-44
2023/07/27 08:21:07;;;;;;;;;;;17.90;82.50;;;;;;5113198;28;19950;-37
2023/07/27 08:23:32;;;;;;;;;;;18.00;82.50;;;;;;5113080;28;20025;-37
2023/07/27 08:25:58;;;;;;;;;;;18.00;82.30;;;;;;5112996;28;20006;-37
2023/07/27 08:28:24;;;;;;;;;;;18.00;82.30;;;;;;5112902;28;19916;-37
2023/07/27 08:30:50;;;;;;;;;;;18.10;82.30;;;;;;5113034;28;20299;-37
2023/07/27 08:33:16;;;;;;;;;;;18.00;83.00;;;;;;5113034;28;19941;-36
2023/07/27 08:35:41;;;;;;;;;;;18.10;82.90;;;;;;5112925;28;19915;-38
2023/07/27 08:38:07;;;;;;;;;;;18.10;83.00;;;;;;5112864;28;19955;-38
2023/07/27 08:40:33;;;;;;;;;;;18.10;83.00;;;;;;5112823;28;19911;-34
2023/07/27 08:42:58;;;;;;;;;;;18.10;82.90;;;;;;5112910;28;19932;-38
2023/07/27 08:45:23;;;;;;;;;;;18.20;83.20;;;;;;5112723;28;19987;-35
2023/07/27 08:47:49;;;;;;;;;;;18.20;83.10;;;;;;5112581;28;19923;-38
2023/07/27 08:50:15;;;;;;;;;;;18.30;83.10;;;;;;5112570;28;19927;-36
2023/07/27 08:52:41;;;;;;;;;;;18.30;83.30;;;;;;5112710;28;19912;-38
2023/07/27 08:55:07;;;;;;;;;;;18.30;83.40;;;;;;5112669;28;20002;-37
2023/07/27 08:57:32;;;;;;;;;;;18.30;83.60;;;;;;5112594;28;19918;-37
2023/07/27 08:59:58;;;;;;;;;;;18.30;83.90;;;;;;5112551;28;20435;-38
2023/07/27 09:02:23;;;;;;;;;;;18.40;83.90;;;;;;5112532;28;20382;-37
2023/07/27 09:04:49;;;;;;;;;;;18.40;84.00;;;;;;5112535;28;19912;-38
2023/07/27 09:07:14;;;;;;;;;;;18.40;84.00;;;;;;5112443;28;20445;-37
2023/07/27 09:09:40;;;;;;;;;;;18.50;83.90;;;;;;5113135;28;19957;-38
2023/07/27 09:12:06;;;;;;;;;;;18.40;84.10;;;;;;5116814;28;20294;-36
2023/07/27 09:14:38;;;;;;;;;;;18.40;84.10;;;;;;5116895;28;19919;-36
2023/07/27 09:17:04;;;;;;;;;;;18.40;83.90;;;;;;5116627;28;20389;-42
2023/07/27 09:19:35;;;;;;;;;;;18.40;83.80;;;;;;5116719;28;19912;-39
2023/07/27 09:22:00;;;;;;;;;;;18.50;83.80;;;;;;5116407;28;19918;-39
2023/07/27 09:24:29;;;;;;;;;;;18.50;83.90;;;;;;5116595;28;19912;-35
2023/07/27 09:26:54;;;;;;;;;;;18.50;84.60;;;;;;5116456;28;19912;-37
2023/07/27 09:29:20;;;;;;;;;;;18.50;84.10;;;;;;5116331;28;20270;-38
2023/07/27 09:31:53;;;;;;;;;;;18.50;84.00;;;;;;5116634;28;19988;-38
2023/07/27 09:34:19;;;;;;;;;;;18.50;83.90;;;;;;5116192;28;20386;-38
2023/07/27 09:36:45;;;;;;;;;;;18.50;84.60;;;;;;5116269;28;20007;-36
2023/07/27 09:39:11;;;;;;;;;;;18.50;85.00;;;;;;5116269;28;19951;-37
2023/07/27 09:41:37;;;;;;;;;;;18.40;85.60;;;;;;5116153;28;19912;-36
2023/07/27 09:44:03;;;;;;;;;;;18.40;86.30;;;;;;5097664;28;19961;-36
2023/07/27 09:46:29;;;;;;;;;;;18.40;85.80;;;;;;5116003;28;20006;-38
2023/07/27 09:48:56;;;;;;;;;;;18.40;85.50;;;;;;5115834;28;20300;-38
2023/07/27 09:51:22;;;;;;;;;;;18.50;85.40;;;;;;5116045;28;19954;-37
2023/07/27 09:53:50;;;;;;;;;;;18.50;85.50;;;;;;5115826;28;20317;-36
2023/07/27 09:56:15;;;;;;;;;;;18.60;85.70;;;;;;5115904;28;19943;-34
2023/07/27 09:58:41;;;;;;;;;;;18.60;86.00;;;;;;5115761;28;19912;-37
2023/07/27 10:01:10;;;;;;;;;;;18.60;85.90;;;;;;5115919;28;20007;-37
2023/07/27 10:03:35;;;;;;;;;;;18.70;85.90;;;;;;5115852;28;20346;-37
2023/07/27 10:06:01;;;;;;;;;;;18.70;85.80;;;;;;5115839;28;19915;-39
2023/07/27 10:08:26;;;;;;;;;;;18.70;85.70;;;;;;5115778;28;19955;-41
2023/07/27 10:10:53;;;;;;;;;;;18.80;86.00;;;;;;5115587;28;19919;-36
2023/07/27 10:13:24;;;;;;;;;;;18.80;86.10;;;;;;5097208;28;19912;-37
2023/07/27 10:15:51;;;;;;;;;;;18.80;85.90;;;;;;5097090;28;19971;-37
2023/07/27 10:18:20;;;;;;;;;;;18.80;85.70;;;;;;5115446;28;20394;-36
2023/07/27 10:20:46;;;;;;;;;;;18.90;86.10;;;;;;5114965;28;19912;-38
2023/07/27 10:23:12;;;;;;;;;;;18.90;86.00;;;;;;5114744;28;19965;-37
2023/07/27 10:25:52;;;;;;;;;;;18.90;86.20;;;;;;5115722;28;19919;-39
2023/07/27 10:28:36;;;;;;;;;;;19.00;86.50;;;;;;5115037;28;19961;-37
2023/07/27 10:31:14;;;;;;;;;;;19.00;87.10;;;;;;5115201;28;19911;-38
2023/07/27 10:33:46;;;;;;;;;;;19.00;86.80;;;;;;5115114;28;19918;-38
2023/07/27 10:36:12;;;;;;;;;;;19.00;86.40;;;;;;5115234;28;19922;-36
2023/07/27 10:38:38;;;;;;;;;;;19.10;86.10;;;;;;5115225;28;19916;-36
2023/07/27 10:41:15;;;;;;;;;;;19.10;86.00;;;;;;5114995;28;19965;-37
2023/07/27 10:43:59;;;;;;;;;;;19.10;85.70;;;;;;5114859;28;20333;-38
2023/07/27 10:46:25;;;;;;;;;;;19.10;85.50;;;;;;5114975;28;19912;-36
2023/07/27 10:48:57;;;;;;;;;;;19.20;85.90;;;;;;5114752;28;19923;-37
2023/07/27 10:51:24;;;;;;;;;;;19.20;85.80;;;;;;5114788;28;19955;-36
2023/07/27 10:53:50;;;;;;;;;;;19.20;85.80;;;;;;5114788;28;20007;-38
2023/07/27 10:56:16;;;;;;;;;;;19.20;86.10;;;;;;5114596;28;19951;-37
2023/07/27 10:58:43;;;;;;;;;;;19.20;86.10;;;;;;5114738;28;20428;-38
2023/07/27 11:01:09;;;;;;;;;;;19.20;85.80;;;;;;5114704;28;19919;-37
2023/07/27 11:03:34;;;;;;;;;;;19.20;85.80;;;;;;5114555;28;19911;-37
2023/07/27 11:06:03;;;;;;;;;;;19.30;85.70;;;;;;5114746;28;19912;-38
2023/07/27 11:08:28;;;;;;;;;;;19.20;85.80;;;;;;5114438;28;19938;-37
2023/07/27 11:10:54;;;;;;;;;;;19.20;86.00;;;;;;5114533;28;19912;-37
2023/07/27 11:13:22;;;;;;;;;;;19.20;86.20;;;;;;5096090;28;20036;-39
2023/07/27 11:15:48;;;;;;;;;;;19.20;86.10;;;;;;5114302;28;19912;-37
2023/07/27 11:18:19;;;;;;;;;;;19.30;86.00;;;;;;5114382;28;20377;-37
2023/07/27 11:20:45;;;;;;;;;;;19.30;86.00;;;;;;5114160;28;19912;-36
2023/07/27 11:23:11;;;;;;;;;;;19.40;86.20;;;;;;5114285;28;19915;-39
2023/07/27 11:25:37;;;;;;;;;;;19.40;85.80;;;;;;5114657;28;20589;-38
2023/07/27 11:28:03;;;;;;;;;;;19.50;86.30;;;;;;5114099;28;19916;-36
2023/07/27 11:30:29;;;;;;;;;;;19.50;85.50;;;;;;5113942;28;19911;-38
2023/07/27 11:32:56;;;;;;;;;;;19.50;85.50;;;;;;5113577;28;19919;-37
2023/07/27 11:35:22;;;;;;;;;;;19.50;85.40;;;;;;5113937;28;20003;-36
2023/07/27 11:37:47;;;;;;;;;;;19.50;85.60;;;;;;5114048;28;20290;-36
2023/07/27 11:40:19;;;;;;;;;;;19.60;85.40;;;;;;5113909;28;19999;-37
2023/07/27 11:42:45;;;;;;;;;;;19.60;85.60;;;;;;5113791;28;19915;-37
2023/07/27 11:45:10;;;;;;;;;;;19.60;85.50;;;;;;5113800;28;20260;-37
2023/07/27 11:47:37;;;;;;;;;;;19.60;85.60;;;;;;5113584;28;20086;-37
2023/07/27 11:50:05;;;;;;;;;;;19.50;85.70;;;;;;5113620;28;19946;-37
2023/07/27 11:52:32;;;;;;;;;;;19.50;85.90;;;;;;5113602;28;19923;-39
2023/07/27 11:54:59;;;;;;;;;;;19.50;85.90;;;;;;5095342;28;20379;-37
2023/07/27 11:57:26;;;;;;;;;;;19.50;85.70;;;;;;5113777;28;19912;-38
2023/07/27 11:59:59;;;;;;;;;;;19.60;86.00;;;;;;5113070;28;21444;-38
2023/07/27 12:02:25;;;;;;;;;;;19.60;86.20;;;;;;5113546;28;19912;-40
2023/07/27 12:04:50;;;;;;;;;;;19.70;85.80;;;;;;5113478;28;20037;-38
2023/07/27 12:07:15;;;;;;;;;;;19.70;85.50;;;;;;5113224;28;19916;-36
2023/07/27 12:09:41;;;;;;;;;;;19.80;85.30;;;;;;5113627;28;19912;-39
2023/07/27 12:12:08;;;;;;;;;;;19.90;85.60;;;;;;5113817;28;19912;-37
2023/07/27 12:14:34;;;;;;;;;;;19.90;85.40;;;;;;5113381;28;19918;-37
2023/07/27 12:16:59;;;;;;;;;;;20.00;85.30;;;;;;5113259;28;20291;-38
2023/07/27 12:19:25;;;;;;;;;;;20.00;85.40;;;;;;5113048;28;20433;-35
2023/07/27 12:21:50;;;;;;;;;;;20.00;85.20;;;;;;5113070;28;20270;-38
2023/07/27 12:24:16;;;;;;;;;;;20.00;85.50;;;;;;5113030;28;19919;-44
2023/07/27 12:26:41;;;;;;;;;;;20.00;85.50;;;;;;5112972;28;19919;-38
2023/07/27 12:29:07;;;;;;;;;;;20.00;85.40;;;;;;5112980;28;19923;-38
2023/07/27 12:31:33;;;;;;;;;;;20.00;85.60;;;;;;5112906;28;19912;-36
2023/07/27 12:33:59;;;;;;;;;;;19.90;85.70;;;;;;5112809;28;19912;-37
2023/07/27 12:36:24;;;;;;;;;;;19.90;85.70;;;;;;5112874;28;20283;-42
2023/07/27 12:38:50;;;;;;;;;;;20.00;85.50;;;;;;5112693;28;19912;-37
2023/07/27 12:41:15;;;;;;;;;;;20.00;85.80;;;;;;5112813;28;19973;-38
2023/07/27 12:43:41;;;;;;;;;;;20.00;85.90;;;;;;5112569;28;19918;-41
2023/07/27 12:46:06;;;;;;;;;;;20.00;86.30;;;;;;5112186;28;19916;-37
2023/07/27 12:48:32;;;;;;;;;;;19.90;86.10;;;;;;5112681;28;19922;-37
2023/07/27 12:50:58;;;;;;;;;;;19.90;86.30;;;;;;5112763;28;19920;-34
2023/07/27 12:53:23;;;;;;;;;;;19.90;86.20;;;;;;5112648;28;19976;-36
2023/07/27 12:55:49;;;;;;;;;;;19.90;86.10;;;;;;5094421;28;19946;-37
2023/07/27 12:58:14;;;;;;;;;;;20.00;86.10;;;;;;5112674;28;19912;-37
2023/07/27 13:00:40;;;;;;;;;;;20.00;85.90;;;;;;5112788;28;19912;-38
2023/07/27 13:03:05;;;;;;;;;;;20.10;85.90;;;;;;5112618;28;19912;-37
2023/07/27 13:05:31;;;;;;;;;;;20.10;85.90;;;;;;5112494;28;20378;-38
2023/07/27 13:07:56;;;;;;;;;;;20.10;86.00;;;;;;5112350;28;19927;-36
2023/07/27 13:10:22;;;;;;;;;;;20.10;85.90;;;;;;5112703;28;19912;-35
2023/07/27 13:12:47;;;;;;;;;;;20.10;86.10;;;;;;5112592;28;19912;-39
2023/07/27 13:15:13;;;;;;;;;;;20.00;86.20;;;;;;5112495;28;19955;-36
2023/07/27 13:17:39;;;;;;;;;;;20.10;86.20;;;;;;5112566;28;19912;-36
2023/07/27 13:20:06;;;;;;;;;;;20.10;86.10;;;;;;5112582;28;19911;-38
2023/07/27 13:22:32;;;;;;;;;;;20.20;85.90;;;;;;5112824;28;20011;-42
2023/07/27 13:24:57;;;;;;;;;;;20.20;85.60;;;;;;5112285;28;20010;-37
2023/07/27 13:27:23;;;;;;;;;;;20.30;85.60;;;;;;5112378;28;19923;-36
2023/07/27 13:29:49;;;;;;;;;;;20.30;85.70;;;;;;5112184;28;19912;-38
2023/07/27 13:32:14;;;;;;;;;;;20.30;85.80;;;;;;5093995;28;19912;-37
2023/07/27 13:34:40;;;;;;;;;;;20.30;86.30;;;;;;5112586;28;20359;-39
2023/07/27 13:37:06;;;;;;;;;;;20.40;85.90;;;;;;5112292;28;19922;-37
2023/07/27 13:39:32;;;;;;;;;;;20.40;85.90;;;;;;5112269;28;19916;-36
2023/07/27 13:41:57;;;;;;;;;;;20.40;85.90;;;;;;5112483;28;20022;-37
2023/07/27 13:44:23;;;;;;;;;;;20.40;86.40;;;;;;5112432;28;19912;-37
2023/07/27 13:46:48;;;;;;;;;;;20.40;86.50;;;;;;5112255;28;19912;-36
2023/07/27 13:49:14;;;;;;;;;;;20.30;86.40;;;;;;5112034;28;20305;-39
2023/07/27 13:51:39;;;;;;;;;;;20.40;86.50;;;;;;5112033;28;19947;-38
2023/07/27 13:54:05;;;;;;;;;;;20.40;86.40;;;;;;5112067;28;20379;-37
2023/07/27 13:56:30;;;;;;;;;;;20.40;86.80;;;;;;5114213;28;19912;-38
2023/07/27 13:58:56;;;;;;;;;;;20.40;86.90;;;;;;5115891;28;19950;-37
2023/07/27 14:01:21;;;;;;;;;;;20.30;87.00;;;;;;5115797;28;19912;-40
2023/07/27 14:03:47;;;;;;;;;;;20.30;87.30;;;;;;5115780;28;19962;-37
2023/07/27 14:06:13;;;;;;;;;;;20.30;87.30;;;;;;5115733;28;19970;-37
2023/07/27 14:08:38;;;;;;;;;;;20.20;87.90;;;;;;5115620;28;19970;-38
2023/07/27 14:11:04;;;;;;;;;;;20.20;88.30;;;;;;5115659;28;19916;-37